createdAt,value
2023-03-20T00:01:29.799Z,9.80
2023-03-20T00:03:57.671Z,9.80
2023-03-20T00:06:27.087Z,9.80
2023-03-20T00:08:55.005Z,9.80
2023-03-20T00:11:29.338Z,9.80
2023-03-20T00:14:01.913Z,9.70
2023-03-20T00:16:36.968Z,9.70
2023-03-20T00:19:05.150Z,9.60
2023-03-20T00:21:32.120Z,9.60
2023-03-20T00:23:58.870Z,9.60
2023-03-20T00:26:32.717Z,9.60
2023-03-20T00:28:59.556Z,9.50
2023-03-20T00:31:38.059Z,9.50
2023-03-20T00:34:10.028Z,9.50
2023-03-20T00:36:36.707Z,9.40
2023-03-20T00:39:04.429Z,9.40
2023-03-20T00:41:55.855Z,9.30
2023-03-20T00:44:48.232Z,9.30
2023-03-20T00:47:24.110Z,9.20
2023-03-20T00:49:52.964Z,9.20
2023-03-20T00:52:21.519Z,9.20
2023-03-20T00:54:51.324Z,9.20
2023-03-20T00:57:25.486Z,9.10
2023-03-20T01:00:07.028Z,9.10
2023-03-20T01:02:34.004Z,9.10
2023-03-20T01:05:01.562Z,9.10
2023-03-20T01:07:28.569Z,9.10
2023-03-20T01:09:55.399Z,9.20
2023-03-20T01:12:22.541Z,9.20
2023-03-20T01:14:54.438Z,9.10
2023-03-20T01:17:23.768Z,9.00
2023-03-20T01:19:51.059Z,9.00
2023-03-20T01:22:18.033Z,8.90
2023-03-20T01:24:45.371Z,9.00
2023-03-20T01:27:15.390Z,8.90
2023-03-20T01:29:42.544Z,8.80
2023-03-20T01:32:15.606Z,8.80
2023-03-20T01:34:45.409Z,8.90
2023-03-20T01:37:16.921Z,8.90
2023-03-20T01:39:44.300Z,9.00
2023-03-20T01:42:15.395Z,9.00
2023-03-20T01:44:43.223Z,9.10
2023-03-20T01:47:24.382Z,9.10
2023-03-20T01:50:33.398Z,9.00
2023-03-20T01:53:20.807Z,9.00
2023-03-20T01:55:56.073Z,8.90
2023-03-20T01:58:32.894Z,8.90
2023-03-20T02:01:00.407Z,9.00
2023-03-20T02:03:27.379Z,9.00
2023-03-20T02:06:07.378Z,9.00
2023-03-20T02:08:54.355Z,8.90
2023-03-20T02:11:24.252Z,8.90
2023-03-20T02:13:55.388Z,8.80
2023-03-20T02:16:23.053Z,8.80
2023-03-20T02:18:58.103Z,8.70
2023-03-20T02:21:47.477Z,8.70
2023-03-20T02:24:51.138Z,8.80
2023-03-20T02:27:23.720Z,8.70
2023-03-20T02:30:02.700Z,8.70
2023-03-20T02:33:05.908Z,8.70
2023-03-20T02:36:10.382Z,8.70
2023-03-20T02:39:13.142Z,8.70
2023-03-20T02:41:52.648Z,8.60
2023-03-20T02:44:42.132Z,8.60
2023-03-20T02:47:21.601Z,8.70
2023-03-20T02:50:20.324Z,8.70
2023-03-20T02:53:03.547Z,8.70
2023-03-20T02:55:57.976Z,8.60
2023-03-20T02:58:34.042Z,8.60
2023-03-20T03:01:10.242Z,8.60
2023-03-20T03:04:00.689Z,8.60
2023-03-20T03:06:34.407Z,8.60
2023-03-20T03:09:17.232Z,8.60
2023-03-20T03:11:50.138Z,8.60
2023-03-20T03:14:36.830Z,8.60
2023-03-20T03:17:07.176Z,8.60
2023-03-20T03:19:36.758Z,8.50
2023-03-20T03:22:04.655Z,8.50
2023-03-20T03:24:40.709Z,8.60
2023-03-20T03:27:20.860Z,8.50
2023-03-20T03:30:13.224Z,8.50
2023-03-20T03:32:51.075Z,8.50
2023-03-20T03:35:21.381Z,8.60
2023-03-20T03:38:02.459Z,8.60
2023-03-20T03:41:06.364Z,8.60
2023-03-20T03:43:43.484Z,8.60
2023-03-20T03:46:22.657Z,8.60
2023-03-20T03:48:55.366Z,8.60
2023-03-20T03:51:26.410Z,8.70
2023-03-20T03:54:28.113Z,8.60
2023-03-20T03:57:49.735Z,8.70
2023-03-20T04:00:21.749Z,8.70
2023-03-20T04:02:53.880Z,8.60
2023-03-20T04:05:22.632Z,8.50
2023-03-20T04:07:56.325Z,8.50
2023-03-20T04:10:23.003Z,8.50
2023-03-20T04:12:49.616Z,8.50
2023-03-20T04:15:17.374Z,8.50
2023-03-20T04:17:44.414Z,8.50
2023-03-20T04:20:13.985Z,8.40
2023-03-20T04:22:41.246Z,8.40
2023-03-20T04:25:21.749Z,8.40
2023-03-20T04:27:50.312Z,8.30
2023-03-20T04:30:25.369Z,8.30
2023-03-20T04:33:16.288Z,8.20
2023-03-20T04:35:56.323Z,8.00
2023-03-20T04:38:24.962Z,8.00
2023-03-20T04:40:53.034Z,8.00
2023-03-20T04:43:19.885Z,7.90
2023-03-20T04:45:46.591Z,7.80
2023-03-20T04:48:13.380Z,7.80
2023-03-20T04:50:40.802Z,7.70
2023-03-20T04:53:07.883Z,7.70
2023-03-20T04:55:34.821Z,7.70
2023-03-20T04:58:01.569Z,7.70
2023-03-20T05:00:29.204Z,7.60
2023-03-20T05:02:55.919Z,7.70
2023-03-20T05:05:23.487Z,7.60
2023-03-20T05:07:51.630Z,7.60
2023-03-20T05:10:27.472Z,7.50
2023-03-20T05:13:02.456Z,7.40
2023-03-20T05:15:52.613Z,7.50
2023-03-20T05:18:39.577Z,7.40
2023-03-20T05:21:37.945Z,7.40
2023-03-20T05:24:31.214Z,7.40
2023-03-20T05:27:18.465Z,7.40
2023-03-20T05:30:08.903Z,7.30
2023-03-20T05:33:02.177Z,7.40
2023-03-20T05:35:29.138Z,7.40
2023-03-20T05:38:04.810Z,7.40
2023-03-20T05:40:41.978Z,7.50
2023-03-20T05:43:33.451Z,7.50
2023-03-20T05:46:11.562Z,7.40
2023-03-20T05:49:06.383Z,7.30
2023-03-20T05:51:55.693Z,7.30
2023-03-20T05:54:57.577Z,7.30
2023-03-20T05:57:34.405Z,7.40
2023-03-20T06:00:20.087Z,7.50
2023-03-20T06:02:51.158Z,7.40
2023-03-20T06:05:38.668Z,7.40
2023-03-20T06:08:05.743Z,7.40
2023-03-20T06:10:33.021Z,7.30
2023-03-20T06:13:01.202Z,7.30
2023-03-20T06:15:29.135Z,7.30
2023-03-20T06:18:03.708Z,7.30
2023-03-20T06:20:31.482Z,7.30
2023-03-20T06:23:01.442Z,7.30
2023-03-20T06:25:28.645Z,7.30
2023-03-20T06:27:55.630Z,7.30
2023-03-20T06:30:22.686Z,7.30
2023-03-20T06:32:50.508Z,7.30
2023-03-20T06:35:18.890Z,7.30
2023-03-20T06:37:47.563Z,7.20
2023-03-20T06:40:21.563Z,7.30
2023-03-20T06:42:48.582Z,7.30
2023-03-20T06:45:16.679Z,7.30
2023-03-20T06:47:52.587Z,7.30
2023-03-20T06:50:19.344Z,7.30
2023-03-20T06:52:46.455Z,7.30
2023-03-20T06:55:51.818Z,7.20
2023-03-20T06:58:18.867Z,7.30
2023-03-20T07:00:49.481Z,7.40
2023-03-20T07:03:16.528Z,7.40
2023-03-20T07:05:45.765Z,7.40
2023-03-20T07:08:12.642Z,7.30
2023-03-20T07:10:39.496Z,7.40
2023-03-20T07:13:06.240Z,7.30
2023-03-20T07:15:35.426Z,7.30
2023-03-20T07:18:02.936Z,7.30
2023-03-20T07:20:29.762Z,7.30
2023-03-20T07:22:56.670Z,7.40
2023-03-20T07:25:41.309Z,7.40
2023-03-20T07:28:11.378Z,7.30
2023-03-20T07:30:41.815Z,7.40
2023-03-20T07:33:08.640Z,7.40
2023-03-20T07:35:36.283Z,7.40
2023-03-20T07:38:03.454Z,7.50
2023-03-20T07:40:30.727Z,7.40
2023-03-20T07:43:01.850Z,7.40
2023-03-20T07:45:49.760Z,7.40
2023-03-20T07:48:19.302Z,7.30
2023-03-20T07:50:46.258Z,7.30
2023-03-20T07:53:13.147Z,7.40
2023-03-20T07:55:39.764Z,7.40
2023-03-20T07:58:08.369Z,7.50
2023-03-20T08:00:35.063Z,7.60
2023-03-20T08:03:01.761Z,7.70
2023-03-20T08:05:28.565Z,7.80
2023-03-20T08:07:55.657Z,7.80
2023-03-20T08:10:22.596Z,7.80
2023-03-20T08:12:49.322Z,7.80
2023-03-20T08:15:16.411Z,7.90
2023-03-20T08:17:44.498Z,7.90
2023-03-20T08:20:12.975Z,7.90
2023-03-20T08:22:39.969Z,7.90
2023-03-20T08:25:08.390Z,8.10
2023-03-20T08:27:35.941Z,8.00
2023-03-20T08:30:03.673Z,8.00
2023-03-20T08:32:30.506Z,8.00
2023-03-20T08:34:57.154Z,8.00
2023-03-20T08:37:23.816Z,8.00
2023-03-20T08:39:50.606Z,8.00
2023-03-20T08:42:17.338Z,8.00
2023-03-20T08:44:45.087Z,8.00
2023-03-20T08:47:12.213Z,8.00
2023-03-20T08:49:38.877Z,7.90
2023-03-20T08:52:06.017Z,8.00
2023-03-20T08:54:33.699Z,8.00
2023-03-20T08:57:00.341Z,8.10
2023-03-20T08:59:27.086Z,8.10
2023-03-20T09:01:54.243Z,8.10
2023-03-20T09:04:21.051Z,8.20
2023-03-20T09:06:47.852Z,8.20
2023-03-20T09:09:15.836Z,8.10
2023-03-20T09:11:42.725Z,8.20
2023-03-20T09:14:09.647Z,8.30
2023-03-20T09:16:36.386Z,8.40
2023-03-20T09:19:03.748Z,8.50
2023-03-20T09:21:30.407Z,8.50
2023-03-20T09:23:57.057Z,8.60
2023-03-20T09:26:24.003Z,8.50
2023-03-20T09:28:50.596Z,8.80
2023-03-20T09:31:17.296Z,9.10
2023-03-20T09:33:43.996Z,9.20
2023-03-20T09:36:11.745Z,9.40
2023-03-20T09:38:38.716Z,9.60
2023-03-20T09:41:06.440Z,9.50
2023-03-20T09:43:57.160Z,9.60
2023-03-20T09:46:49.235Z,9.40
2023-03-20T09:49:28.947Z,9.20
2023-03-20T09:52:00.698Z,9.10
2023-03-20T09:54:52.657Z,9.00
2023-03-20T09:57:28.070Z,8.90
2023-03-20T09:59:57.176Z,8.90
2023-03-20T10:02:37.493Z,8.90
2023-03-20T10:05:15.683Z,8.80
2023-03-20T10:07:42.904Z,8.70
2023-03-20T10:10:14.750Z,8.80
2023-03-20T10:13:27.383Z,8.80
2023-03-20T10:16:09.171Z,8.80
2023-03-20T10:18:41.046Z,8.80
2023-03-20T10:21:18.826Z,8.80
2023-03-20T10:24:03.740Z,8.80
2023-03-20T10:26:35.183Z,8.80
2023-03-20T10:29:29.084Z,8.70
2023-03-20T10:32:11.152Z,8.80
2023-03-20T10:34:52.708Z,8.90
2023-03-20T10:37:47.695Z,9.00
2023-03-20T10:40:31.717Z,9.00
2023-03-20T10:43:04.562Z,9.10
2023-03-20T10:45:48.899Z,9.10
2023-03-20T10:48:38.783Z,9.10
2023-03-20T10:51:10.333Z,9.10
2023-03-20T10:53:47.331Z,9.10
2023-03-20T10:56:23.394Z,9.20
2023-03-20T10:58:59.134Z,9.20
2023-03-20T11:01:25.977Z,9.30
2023-03-20T11:03:52.699Z,9.50
2023-03-20T11:06:24.648Z,9.40
2023-03-20T11:08:53.414Z,9.40
2023-03-20T11:11:30.556Z,9.50
2023-03-20T11:13:58.517Z,9.50
2023-03-20T11:16:32.857Z,9.70
2023-03-20T11:19:06.918Z,9.80
2023-03-20T11:21:44.244Z,9.80
2023-03-20T11:24:33.872Z,9.80
2023-03-20T11:27:12.595Z,9.80
2023-03-20T11:29:43.159Z,9.50
2023-03-20T11:32:36.031Z,9.60
2023-03-20T11:35:28.565Z,9.80
2023-03-20T11:38:07.106Z,9.90
2023-03-20T11:40:34.481Z,10.00
2023-03-20T11:43:01.249Z,10.00
2023-03-20T11:45:47.662Z,9.90
2023-03-20T11:48:17.820Z,9.70
2023-03-20T11:50:49.072Z,9.90
2023-03-20T11:53:39.797Z,10.00
2023-03-20T11:56:08.766Z,10.00
2023-03-20T11:58:38.278Z,9.90
2023-03-20T12:01:08.945Z,9.90
2023-03-20T12:03:55.470Z,10.10
2023-03-20T12:06:27.040Z,10.10
2023-03-20T12:09:05.883Z,10.10
2023-03-20T12:12:00.016Z,10.10
2023-03-20T12:14:35.686Z,10.00
2023-03-20T12:17:11.294Z,10.10
2023-03-20T12:19:38.746Z,10.00
2023-03-20T12:22:39.944Z,9.80
2023-03-20T12:25:27.584Z,9.90
2023-03-20T12:28:17.738Z,9.90
2023-03-20T12:31:13.769Z,9.90
2023-03-20T12:33:54.705Z,10.10
2023-03-20T12:36:36.413Z,10.10
2023-03-20T12:39:12.015Z,10.30
2023-03-20T12:42:09.379Z,10.50
2023-03-20T12:45:06.679Z,10.70
2023-03-20T12:48:11.054Z,11.10
2023-03-20T12:50:41.108Z,11.10
2023-03-20T12:53:31.004Z,10.80
2023-03-20T12:56:32.899Z,10.70
2023-03-20T12:59:29.327Z,10.70
2023-03-20T13:02:03.811Z,10.80
2023-03-20T13:04:58.791Z,10.80
2023-03-20T13:07:43.553Z,10.70
2023-03-20T13:10:23.822Z,10.40
2023-03-20T13:13:14.466Z,10.30
2023-03-20T13:16:05.742Z,10.30
2023-03-20T13:19:15.977Z,10.10
2023-03-20T13:21:57.073Z,9.90
2023-03-20T13:24:38.747Z,9.80
2023-03-20T13:27:13.358Z,9.90
2023-03-20T13:30:11.892Z,9.90
2023-03-20T13:32:49.113Z,10.00
2023-03-20T13:35:48.479Z,10.00
2023-03-20T13:38:21.559Z,10.00
2023-03-20T13:40:58.506Z,10.00
2023-03-20T13:43:45.175Z,10.00
2023-03-20T13:46:19.717Z,9.90
2023-03-20T13:48:46.397Z,9.80
2023-03-20T13:51:31.704Z,9.80
2023-03-20T13:54:13.640Z,9.90
2023-03-20T13:57:06.235Z,10.00
2023-03-20T13:59:50.295Z,9.80
2023-03-20T14:02:33.566Z,9.80
2023-03-20T14:05:14.066Z,9.80
2023-03-20T14:07:44.656Z,9.70
2023-03-20T14:10:23.355Z,9.70
2023-03-20T14:13:00.141Z,9.70
2023-03-20T14:15:31.930Z,9.60
2023-03-20T14:18:03.148Z,9.60
2023-03-20T14:20:36.936Z,9.50
2023-03-20T14:23:04.769Z,9.60
2023-03-20T14:25:40.575Z,9.50
2023-03-20T14:28:13.212Z,9.40
2023-03-20T14:30:44.105Z,9.40
2023-03-20T14:33:16.971Z,9.30
2023-03-20T14:35:50.608Z,9.20
2023-03-20T14:38:33.143Z,9.30
2023-03-20T14:41:09.931Z,9.30
2023-03-20T14:43:52.264Z,9.30
2023-03-20T14:46:42.142Z,9.30
2023-03-20T14:49:31.308Z,9.30
2023-03-20T14:52:12.316Z,9.30
2023-03-20T14:54:41.509Z,9.20
2023-03-20T14:57:17.794Z,9.10
2023-03-20T14:59:44.481Z,9.00
2023-03-20T15:02:27.390Z,9.00
2023-03-20T15:04:54.922Z,8.90
2023-03-20T15:07:26.651Z,9.00
2023-03-20T15:09:59.975Z,9.00
2023-03-20T15:12:30.474Z,9.00
2023-03-20T15:14:59.776Z,9.00
2023-03-20T15:17:38.385Z,9.00
2023-03-20T15:20:19.056Z,8.90
2023-03-20T15:22:58.167Z,9.00
2023-03-20T15:25:32.704Z,9.00
2023-03-20T15:27:59.614Z,9.00
2023-03-20T15:30:26.702Z,9.00
2023-03-20T15:32:54.927Z,9.10
2023-03-20T15:35:25.942Z,9.00
2023-03-20T15:37:53.518Z,8.80
2023-03-20T15:40:40.189Z,8.90
2023-03-20T15:43:24.284Z,8.90
2023-03-20T15:46:02.990Z,8.90
2023-03-20T15:48:36.966Z,8.90
2023-03-20T15:51:05.405Z,8.90
2023-03-20T15:53:37.613Z,8.90
2023-03-20T15:56:17.210Z,8.70
2023-03-20T15:58:46.574Z,8.70
2023-03-20T16:01:18.538Z,8.70
2023-03-20T16:03:45.541Z,8.60
2023-03-20T16:06:16.362Z,8.60
2023-03-20T16:08:45.465Z,8.60
2023-03-20T16:11:16.934Z,8.60
2023-03-20T16:13:48.222Z,8.70
2023-03-20T16:16:21.573Z,8.60
2023-03-20T16:18:49.431Z,8.50
2023-03-20T16:21:20.630Z,8.60
2023-03-20T16:23:51.725Z,8.60
2023-03-20T16:26:21.688Z,8.50
2023-03-20T16:28:54.643Z,8.40
2023-03-20T16:31:21.279Z,8.30
2023-03-20T16:33:48.952Z,8.30
2023-03-20T16:36:26.817Z,8.20
2023-03-20T16:39:01.335Z,8.20
2023-03-20T16:41:34.005Z,8.00
2023-03-20T16:44:12.002Z,7.90
2023-03-20T16:46:58.408Z,7.90
2023-03-20T16:49:34.685Z,7.90
2023-03-20T16:52:05.074Z,7.80
2023-03-20T16:54:36.032Z,7.90
2023-03-20T16:57:07.862Z,7.80
2023-03-20T16:59:39.567Z,7.70
2023-03-20T17:02:21.861Z,7.80
2023-03-20T17:04:49.112Z,7.70
2023-03-20T17:07:23.717Z,7.60
2023-03-20T17:10:12.162Z,7.60
2023-03-20T17:12:41.819Z,7.60
2023-03-20T17:15:09.871Z,7.60
2023-03-20T17:17:36.454Z,7.60
2023-03-20T17:20:03.132Z,7.70
2023-03-20T17:22:30.431Z,7.70
2023-03-20T17:24:57.170Z,7.60
2023-03-20T17:27:23.894Z,7.50
2023-03-20T17:29:50.515Z,7.50
2023-03-20T17:32:19.933Z,7.50
2023-03-20T17:34:46.871Z,7.50
2023-03-20T17:37:17.183Z,7.60
2023-03-20T17:39:43.801Z,7.50
2023-03-20T17:42:18.670Z,7.50
2023-03-20T17:44:46.503Z,7.50
2023-03-20T17:47:18.523Z,7.50
2023-03-20T17:49:45.940Z,7.50
2023-03-20T17:52:18.814Z,7.50
2023-03-20T17:54:46.849Z,7.50
2023-03-20T17:57:16.553Z,7.50
2023-03-20T17:59:43.220Z,7.60
2023-03-20T18:02:10.580Z,7.60
2023-03-20T18:04:37.284Z,7.60
2023-03-20T18:07:04.365Z,7.60
2023-03-20T18:09:31.032Z,7.60
2023-03-20T18:11:57.742Z,7.60
2023-03-20T18:14:24.417Z,7.60
2023-03-20T18:16:51.137Z,7.60
2023-03-20T18:19:28.148Z,7.60
2023-03-20T18:21:56.112Z,7.60
2023-03-20T18:24:23.273Z,7.60
2023-03-20T18:26:51.170Z,7.50
2023-03-20T18:29:18.804Z,7.50
2023-03-20T18:31:45.758Z,7.50
2023-03-20T18:34:12.681Z,7.50
2023-03-20T18:36:39.487Z,7.50
2023-03-20T18:39:06.838Z,7.50
2023-03-20T18:41:33.481Z,7.50
2023-03-20T18:44:00.132Z,7.50
2023-03-20T18:46:27.639Z,7.40
2023-03-20T18:48:54.725Z,7.40
2023-03-20T18:51:21.628Z,7.40
2023-03-20T18:53:48.321Z,7.30
2023-03-20T18:56:17.344Z,7.30
2023-03-20T18:58:45.479Z,7.30
2023-03-20T19:01:12.820Z,7.30
2023-03-20T19:03:41.602Z,7.30
2023-03-20T19:06:16.151Z,7.30
2023-03-20T19:08:44.045Z,7.30
2023-03-20T19:11:14.945Z,7.30
2023-03-20T19:13:50.929Z,7.40
2023-03-20T19:16:32.640Z,7.40
2023-03-20T19:19:01.475Z,7.40
2023-03-20T19:21:32.656Z,7.40
2023-03-20T19:24:04.961Z,7.40
2023-03-20T19:26:33.028Z,7.40
2023-03-20T19:29:01.340Z,7.40
2023-03-20T19:31:28.617Z,7.40
2023-03-20T19:33:57.930Z,7.40
2023-03-20T19:36:33.168Z,7.40
2023-03-20T19:39:01.161Z,7.30
2023-03-20T19:41:28.913Z,7.30
2023-03-20T19:43:57.997Z,7.20
2023-03-20T19:46:39.079Z,7.20
2023-03-20T19:49:06.958Z,7.10
2023-03-20T19:51:33.842Z,7.10
2023-03-20T19:54:00.512Z,7.00
2023-03-20T19:56:27.360Z,6.90
2023-03-20T19:58:54.185Z,6.80
2023-03-20T20:01:24.241Z,6.80
2023-03-20T20:03:53.304Z,6.80
2023-03-20T20:06:22.138Z,6.70
2023-03-20T20:08:50.447Z,6.70
2023-03-20T20:11:18.913Z,6.60
2023-03-20T20:14:07.240Z,6.60
2023-03-20T20:16:37.320Z,6.60
2023-03-20T20:19:04.705Z,6.60
2023-03-20T20:24:18.522Z,6.60
2023-03-20T20:26:55.477Z,6.60
2023-03-20T20:29:26.919Z,6.60
2023-03-20T20:31:53.737Z,6.50
2023-03-20T20:39:54.274Z,6.50
2023-03-20T20:42:21.345Z,6.50
2023-03-20T20:44:48.290Z,6.50
2023-03-20T20:47:15.866Z,6.50
2023-03-20T20:49:42.899Z,6.50
2023-03-20T20:52:10.258Z,6.50
2023-03-20T20:54:37.698Z,6.50
2023-03-20T20:57:04.377Z,6.50
2023-03-20T20:59:31.081Z,6.50
2023-03-20T21:01:57.771Z,6.50
2023-03-20T21:04:24.422Z,6.50
2023-03-20T21:07:08.729Z,6.50
2023-03-20T21:09:37.273Z,6.50
2023-03-20T21:12:04.669Z,6.50
2023-03-20T21:14:31.406Z,6.50
2023-03-20T21:17:00.816Z,6.50
2023-03-20T21:19:34.500Z,6.50
2023-03-20T21:22:01.460Z,6.50
2023-03-20T21:24:32.660Z,6.50
2023-03-20T21:27:00.150Z,6.50
2023-03-20T21:29:26.768Z,6.50
2023-03-20T21:31:53.825Z,6.50
2023-03-20T21:34:20.794Z,6.50
2023-03-20T21:36:49.208Z,6.60
2023-03-20T21:39:17.002Z,6.50
2023-03-20T21:41:44.452Z,6.60
2023-03-20T21:44:17.085Z,6.60
2023-03-20T21:56:00.205Z,6.60
2023-03-20T22:04:06.387Z,6.70
2023-03-20T22:07:18.655Z,6.80
2023-03-20T22:10:00.314Z,6.80
2023-03-20T22:21:06.285Z,7.00
2023-03-20T22:26:58.304Z,7.10
2023-03-20T22:32:18.526Z,7.10
2023-03-20T22:37:46.538Z,7.20
2023-03-20T22:42:56.326Z,7.20
2023-03-20T22:45:31.610Z,7.30
2023-03-20T22:48:05.713Z,7.30
2023-03-20T22:50:32.572Z,7.30
2023-03-20T22:52:59.625Z,7.30
2023-03-20T22:55:26.288Z,7.30
2023-03-20T22:58:06.469Z,7.30
2023-03-20T23:00:34.673Z,7.40
2023-03-20T23:03:15.405Z,7.40
2023-03-20T23:05:47.225Z,7.40
2023-03-20T23:08:13.951Z,7.50
2023-03-20T23:10:48.950Z,7.40
2023-03-20T23:13:16.964Z,7.40
2023-03-20T23:15:46.782Z,7.50
2023-03-20T23:18:14.059Z,7.40
2023-03-20T23:20:41.035Z,7.40
2023-03-20T23:23:07.891Z,7.50
2023-03-20T23:25:41.593Z,7.50
2023-03-20T23:28:09.685Z,7.50
2023-03-20T23:30:45.327Z,7.50
2023-03-20T23:33:15.487Z,7.50
2023-03-20T23:35:42.174Z,7.50
2023-03-20T23:38:08.876Z,7.50
2023-03-20T23:40:36.234Z,7.50
2023-03-20T23:43:03.323Z,7.50
2023-03-20T23:45:29.934Z,7.50
2023-03-20T23:47:56.838Z,7.50
2023-03-20T23:50:31.933Z,7.50
2023-03-20T23:53:13.778Z,7.50
2023-03-20T23:55:47.486Z,7.50
2023-03-20T23:58:14.703Z,7.50
